Batchwood, United Kingdom
Current Conditions -  °F | °C
As of 12:20 PM on Thursday 30 Oct 2014 (Local Time) from EGGW Reporting Station
Broken Clouds Broken Clouds  
Wind Chill: 61°   Ceiling: 800
Heat Index: 61°   Visibility: 4mi
Dew Point: 61°   Wind: 8mph
Humidity: 100%   Direction: 200°SSW
Pressure: 30.06"   Gusts: NA
Location:  51.74°N, 0.35°W
Report Text: EGGW 301220Z 20007KT 160V220 6000 BKN008 16/16 Q1018
Loading
Personal Weather Stations






























Interactive Weather Map New forecast layout! Learn more

10-Day Weather Forecast

Advertisements
Track Severe Weather on mobile